sensor_id;sensor_type;location;lat;lon;timestamp;temperature;humidity
21770;DHT22;11046;49.558;8.674;2024-03-22T00:01:34;9.80;95.20
21770;DHT22;11046;49.558;8.674;2024-03-22T00:04:35;9.70;95.20
21770;DHT22;11046;49.558;8.674;2024-03-22T00:07:36;9.70;95.20
21770;DHT22;11046;49.558;8.674;2024-03-22T00:10:37;9.60;95.30
21770;DHT22;11046;49.558;8.674;2024-03-22T00:13:38;9.60;95.50
21770;DHT22;11046;49.558;8.674;2024-03-22T00:16:38;9.50;95.40
21770;DHT22;11046;49.558;8.674;2024-03-22T00:19:39;9.40;95.50
21770;DHT22;11046;49.558;8.674;2024-03-22T00:22:39;9.30;95.70
21770;DHT22;11046;49.558;8.674;2024-03-22T00:25:40;9.20;95.70
21770;DHT22;11046;49.558;8.674;2024-03-22T00:28:40;9.20;95.80
21770;DHT22;11046;49.558;8.674;2024-03-22T00:31:41;9.10;95.80
21770;DHT22;11046;49.558;8.674;2024-03-22T00:34:42;9.10;95.80
21770;DHT22;11046;49.558;8.674;2024-03-22T00:37:43;9.20;95.90
21770;DHT22;11046;49.558;8.674;2024-03-22T00:40:43;9.20;95.80
21770;DHT22;11046;49.558;8.674;2024-03-22T00:43:44;9.20;95.80
21770;DHT22;11046;49.558;8.674;2024-03-22T00:46:45;9.20;95.90
21770;DHT22;11046;49.558;8.674;2024-03-22T00:49:45;9.20;95.80
21770;DHT22;11046;49.558;8.674;2024-03-22T00:52:46;9.10;95.80
21770;DHT22;11046;49.558;8.674;2024-03-22T00:55:46;9.20;95.90
21770;DHT22;11046;49.558;8.674;2024-03-22T00:58:51;9.10;95.90
21770;DHT22;11046;49.558;8.674;2024-03-22T01:01:52;9.10;95.90
21770;DHT22;11046;49.558;8.674;2024-03-22T01:04:52;9.10;95.80
21770;DHT22;11046;49.558;8.674;2024-03-22T01:07:53;9.00;96.00
21770;DHT22;11046;49.558;8.674;2024-03-22T01:10:54;9.00;95.90
21770;DHT22;11046;49.558;8.674;2024-03-22T01:13:54;8.90;96.10
21770;DHT22;11046;49.558;8.674;2024-03-22T01:16:55;8.80;96.10
21770;DHT22;11046;49.558;8.674;2024-03-22T01:19:56;8.80;96.10
21770;DHT22;11046;49.558;8.674;2024-03-22T01:22:56;8.70;96.10
21770;DHT22;11046;49.558;8.674;2024-03-22T01:25:57;8.60;96.30
21770;DHT22;11046;49.558;8.674;2024-03-22T01:28:58;8.60;96.30
21770;DHT22;11046;49.558;8.674;2024-03-22T01:31:58;8.60;96.30
21770;DHT22;11046;49.558;8.674;2024-03-22T01:34:59;8.60;96.30
21770;DHT22;11046;49.558;8.674;2024-03-22T01:38:00;8.50;96.30
21770;DHT22;11046;49.558;8.674;2024-03-22T01:41:01;8.50;96.40
21770;DHT22;11046;49.558;8.674;2024-03-22T01:44:01;8.40;96.50
21770;DHT22;11046;49.558;8.674;2024-03-22T01:47:02;8.30;96.60
21770;DHT22;11046;49.558;8.674;2024-03-22T01:50:04;8.20;96.60
21770;DHT22;11046;49.558;8.674;2024-03-22T01:53:05;8.10;96.70
21770;DHT22;11046;49.558;8.674;2024-03-22T01:56:06;8.10;96.70
21770;DHT22;11046;49.558;8.674;2024-03-22T01:59:07;8.10;96.80
21770;DHT22;11046;49.558;8.674;2024-03-22T02:02:08;8.10;96.80
21770;DHT22;11046;49.558;8.674;2024-03-22T02:05:16;8.10;96.80
21770;DHT22;11046;49.558;8.674;2024-03-22T02:08:20;8.00;97.00
21770;DHT22;11046;49.558;8.674;2024-03-22T02:11:21;8.00;96.90
21770;DHT22;11046;49.558;8.674;2024-03-22T02:14:21;8.10;96.90
21770;DHT22;11046;49.558;8.674;2024-03-22T02:17:22;8.00;96.90
21770;DHT22;11046;49.558;8.674;2024-03-22T02:20:22;8.00;97.00
21770;DHT22;11046;49.558;8.674;2024-03-22T02:23:37;7.80;97.10
21770;DHT22;11046;49.558;8.674;2024-03-22T02:26:37;7.80;97.40
21770;DHT22;11046;49.558;8.674;2024-03-22T02:29:38;7.80;97.30
21770;DHT22;11046;49.558;8.674;2024-03-22T02:32:38;7.80;97.20
21770;DHT22;11046;49.558;8.674;2024-03-22T02:35:40;7.80;97.40
21770;DHT22;11046;49.558;8.674;2024-03-22T02:38:41;7.80;97.40
21770;DHT22;11046;49.558;8.674;2024-03-22T02:41:41;7.80;97.30
21770;DHT22;11046;49.558;8.674;2024-03-22T02:44:42;7.80;97.20
21770;DHT22;11046;49.558;8.674;2024-03-22T02:47:43;7.90;97.30
21770;DHT22;11046;49.558;8.674;2024-03-22T02:50:43;7.80;97.60
21770;DHT22;11046;49.558;8.674;2024-03-22T02:53:44;7.80;97.30
21770;DHT22;11046;49.558;8.674;2024-03-22T02:56:44;7.80;97.30
21770;DHT22;11046;49.558;8.674;2024-03-22T02:59:45;7.90;97.20
21770;DHT22;11046;49.558;8.674;2024-03-22T03:02:46;7.80;97.20
21770;DHT22;11046;49.558;8.674;2024-03-22T03:05:46;7.90;97.30
21770;DHT22;11046;49.558;8.674;2024-03-22T03:08:47;7.80;97.30
21770;DHT22;11046;49.558;8.674;2024-03-22T03:11:47;7.80;97.40
21770;DHT22;11046;49.558;8.674;2024-03-22T03:14:48;7.70;97.50
21770;DHT22;11046;49.558;8.674;2024-03-22T03:17:48;7.70;97.50
21770;DHT22;11046;49.558;8.674;2024-03-22T03:20:49;7.80;97.50
21770;DHT22;11046;49.558;8.674;2024-03-22T03:23:50;7.70;97.60
21770;DHT22;11046;49.558;8.674;2024-03-22T03:26:50;7.70;97.50
21770;DHT22;11046;49.558;8.674;2024-03-22T03:29:51;7.70;97.50
21770;DHT22;11046;49.558;8.674;2024-03-22T03:32:52;7.70;97.50
21770;DHT22;11046;49.558;8.674;2024-03-22T03:35:52;7.60;97.60
21770;DHT22;11046;49.558;8.674;2024-03-22T03:38:53;7.50;97.80
21770;DHT22;11046;49.558;8.674;2024-03-22T03:41:54;7.50;97.70
21770;DHT22;11046;49.558;8.674;2024-03-22T03:44:54;7.50;97.70
21770;DHT22;11046;49.558;8.674;2024-03-22T03:47:55;7.50;97.90
21770;DHT22;11046;49.558;8.674;2024-03-22T03:50:56;7.40;97.80
21770;DHT22;11046;49.558;8.674;2024-03-22T03:53:59;7.40;98.20
21770;DHT22;11046;49.558;8.674;2024-03-22T03:57:00;7.20;97.90
21770;DHT22;11046;49.558;8.674;2024-03-22T04:00:00;7.20;98.00
21770;DHT22;11046;49.558;8.674;2024-03-22T04:03:01;7.10;98.10
21770;DHT22;11046;49.558;8.674;2024-03-22T04:06:02;7.10;98.10
21770;DHT22;11046;49.558;8.674;2024-03-22T04:09:03;7.10;98.10
21770;DHT22;11046;49.558;8.674;2024-03-22T04:12:04;7.10;98.10
21770;DHT22;11046;49.558;8.674;2024-03-22T04:15:05;7.10;98.20
21770;DHT22;11046;49.558;8.674;2024-03-22T04:18:05;7.00;98.20
21770;DHT22;11046;49.558;8.674;2024-03-22T04:21:06;7.00;98.20
21770;DHT22;11046;49.558;8.674;2024-03-22T04:24:07;7.00;98.20
21770;DHT22;11046;49.558;8.674;2024-03-22T04:27:07;7.00;98.30
21770;DHT22;11046;49.558;8.674;2024-03-22T04:30:09;7.00;98.30
21770;DHT22;11046;49.558;8.674;2024-03-22T04:33:09;7.00;98.40
21770;DHT22;11046;49.558;8.674;2024-03-22T04:36:10;7.00;98.40
21770;DHT22;11046;49.558;8.674;2024-03-22T04:39:10;7.00;98.50
21770;DHT22;11046;49.558;8.674;2024-03-22T04:42:12;7.00;98.50
21770;DHT22;11046;49.558;8.674;2024-03-22T04:45:13;7.10;98.60
21770;DHT22;11046;49.558;8.674;2024-03-22T04:48:16;7.10;98.50
21770;DHT22;11046;49.558;8.674;2024-03-22T04:51:16;7.20;98.50
21770;DHT22;11046;49.558;8.674;2024-03-22T04:54:17;7.20;98.50
21770;DHT22;11046;49.558;8.674;2024-03-22T04:57:17;7.10;98.60
21770;DHT22;11046;49.558;8.674;2024-03-22T05:00:18;7.20;98.60
21770;DHT22;11046;49.558;8.674;2024-03-22T05:03:19;7.20;98.60
21770;DHT22;11046;49.558;8.674;2024-03-22T05:06:19;7.20;98.70
21770;DHT22;11046;49.558;8.674;2024-03-22T05:09:20;7.20;98.70
21770;DHT22;11046;49.558;8.674;2024-03-22T05:12:20;7.20;98.70
21770;DHT22;11046;49.558;8.674;2024-03-22T05:15:21;7.30;98.70
21770;DHT22;11046;49.558;8.674;2024-03-22T05:18:22;7.30;98.70
21770;DHT22;11046;49.558;8.674;2024-03-22T05:21:22;7.30;98.60
21770;DHT22;11046;49.558;8.674;2024-03-22T05:24:23;7.30;98.70
21770;DHT22;11046;49.558;8.674;2024-03-22T05:27:24;7.20;98.70
21770;DHT22;11046;49.558;8.674;2024-03-22T05:30:24;7.30;98.80
21770;DHT22;11046;49.558;8.674;2024-03-22T05:33:25;7.30;98.80
21770;DHT22;11046;49.558;8.674;2024-03-22T05:36:25;7.30;98.80
21770;DHT22;11046;49.558;8.674;2024-03-22T05:39:26;7.30;98.90
21770;DHT22;11046;49.558;8.674;2024-03-22T05:42:26;7.30;98.80
21770;DHT22;11046;49.558;8.674;2024-03-22T05:45:27;7.30;98.90
21770;DHT22;11046;49.558;8.674;2024-03-22T05:48:27;7.30;98.90
21770;DHT22;11046;49.558;8.674;2024-03-22T05:51:28;7.20;99.10
21770;DHT22;11046;49.558;8.674;2024-03-22T05:54:31;7.30;99.00
21770;DHT22;11046;49.558;8.674;2024-03-22T05:57:31;7.30;99.00
21770;DHT22;11046;49.558;8.674;2024-03-22T06:03:49;7.30;99.10
21770;DHT22;11046;49.558;8.674;2024-03-22T06:06:50;7.40;99.10
21770;DHT22;11046;49.558;8.674;2024-03-22T06:09:50;7.40;99.20
21770;DHT22;11046;49.558;8.674;2024-03-22T06:12:52;7.40;99.20
21770;DHT22;11046;49.558;8.674;2024-03-22T06:15:53;7.50;99.20
21770;DHT22;11046;49.558;8.674;2024-03-22T06:18:53;7.60;99.20
21770;DHT22;11046;49.558;8.674;2024-03-22T06:21:54;7.70;99.20
21770;DHT22;11046;49.558;8.674;2024-03-22T06:24:54;7.80;99.20
21770;DHT22;11046;49.558;8.674;2024-03-22T06:27:55;7.90;99.20
21770;DHT22;11046;49.558;8.674;2024-03-22T06:30:56;8.00;99.20
21770;DHT22;11046;49.558;8.674;2024-03-22T06:33:56;8.10;99.30
21770;DHT22;11046;49.558;8.674;2024-03-22T06:37:02;8.20;99.30
21770;DHT22;11046;49.558;8.674;2024-03-22T06:40:03;8.40;99.20
21770;DHT22;11046;49.558;8.674;2024-03-22T06:43:03;8.40;99.10
21770;DHT22;11046;49.558;8.674;2024-03-22T06:46:04;8.60;99.20
21770;DHT22;11046;49.558;8.674;2024-03-22T06:49:05;8.60;99.20
21770;DHT22;11046;49.558;8.674;2024-03-22T06:52:05;8.60;99.20
21770;DHT22;11046;49.558;8.674;2024-03-22T06:55:06;8.70;99.30
21770;DHT22;11046;49.558;8.674;2024-03-22T06:58:07;8.90;99.40
21770;DHT22;11046;49.558;8.674;2024-03-22T07:01:07;9.00;99.30
21770;DHT22;11046;49.558;8.674;2024-03-22T07:04:08;9.00;99.30
21770;DHT22;11046;49.558;8.674;2024-03-22T07:07:08;9.20;99.30
21770;DHT22;11046;49.558;8.674;2024-03-22T07:10:09;9.40;99.30
21770;DHT22;11046;49.558;8.674;2024-03-22T07:13:10;9.60;99.30
21770;DHT22;11046;49.558;8.674;2024-03-22T07:16:10;9.90;99.20
21770;DHT22;11046;49.558;8.674;2024-03-22T07:19:12;10.20;99.10
21770;DHT22;11046;49.558;8.674;2024-03-22T07:22:12;10.30;99.00
21770;DHT22;11046;49.558;8.674;2024-03-22T07:25:13;10.50;99.00
21770;DHT22;11046;49.558;8.674;2024-03-22T07:28:14;10.70;98.90
21770;DHT22;11046;49.558;8.674;2024-03-22T07:31:15;10.90;98.80
21770;DHT22;11046;49.558;8.674;2024-03-22T07:34:16;11.10;98.80
21770;DHT22;11046;49.558;8.674;2024-03-22T07:37:17;11.30;98.70
21770;DHT22;11046;49.558;8.674;2024-03-22T07:40:17;11.60;98.50
21770;DHT22;11046;49.558;8.674;2024-03-22T07:43:18;11.70;98.20
21770;DHT22;11046;49.558;8.674;2024-03-22T07:46:18;11.80;98.10
21770;DHT22;11046;49.558;8.674;2024-03-22T07:49:19;11.90;98.00
21770;DHT22;11046;49.558;8.674;2024-03-22T07:52:19;11.90;97.90
21770;DHT22;11046;49.558;8.674;2024-03-22T07:55:20;11.90;97.90
21770;DHT22;11046;49.558;8.674;2024-03-22T07:58:20;11.80;97.80
21770;DHT22;11046;49.558;8.674;2024-03-22T08:01:21;12.00;97.80
21770;DHT22;11046;49.558;8.674;2024-03-22T08:04:22;12.10;97.80
21770;DHT22;11046;49.558;8.674;2024-03-22T08:07:22;12.20;97.60
21770;DHT22;11046;49.558;8.674;2024-03-22T08:10:23;12.30;97.50
21770;DHT22;11046;49.558;8.674;2024-03-22T08:13:23;12.30;97.40
21770;DHT22;11046;49.558;8.674;2024-03-22T08:16:24;12.30;97.70
21770;DHT22;11046;49.558;8.674;2024-03-22T08:19:24;12.30;97.20
21770;DHT22;11046;49.558;8.674;2024-03-22T08:22:31;12.40;97.20
21770;DHT22;11046;49.558;8.674;2024-03-22T08:25:32;12.40;97.10
21770;DHT22;11046;49.558;8.674;2024-03-22T08:28:33;12.50;97.10
21770;DHT22;11046;49.558;8.674;2024-03-22T08:31:33;12.60;97.00
21770;DHT22;11046;49.558;8.674;2024-03-22T08:34:34;12.60;97.00
21770;DHT22;11046;49.558;8.674;2024-03-22T08:37:35;12.60;97.00
21770;DHT22;11046;49.558;8.674;2024-03-22T08:40:39;12.70;96.90
21770;DHT22;11046;49.558;8.674;2024-03-22T08:43:39;12.80;96.80
21770;DHT22;11046;49.558;8.674;2024-03-22T08:46:40;12.80;96.80
21770;DHT22;11046;49.558;8.674;2024-03-22T08:49:41;12.80;96.80
21770;DHT22;11046;49.558;8.674;2024-03-22T08:52:46;12.90;96.90
21770;DHT22;11046;49.558;8.674;2024-03-22T08:55:47;12.90;96.80
21770;DHT22;11046;49.558;8.674;2024-03-22T08:58:48;13.00;97.20
21770;DHT22;11046;49.558;8.674;2024-03-22T09:01:50;13.10;96.80
21770;DHT22;11046;49.558;8.674;2024-03-22T09:04:51;13.20;96.80
21770;DHT22;11046;49.558;8.674;2024-03-22T09:07:51;13.30;96.80
21770;DHT22;11046;49.558;8.674;2024-03-22T09:10:54;13.30;96.60
21770;DHT22;11046;49.558;8.674;2024-03-22T09:14:06;13.40;96.60
21770;DHT22;11046;49.558;8.674;2024-03-22T09:17:08;13.50;96.50
21770;DHT22;11046;49.558;8.674;2024-03-22T09:20:39;13.60;96.50
21770;DHT22;11046;49.558;8.674;2024-03-22T09:23:40;13.60;96.40
21770;DHT22;11046;49.558;8.674;2024-03-22T09:26:40;13.80;96.50
21770;DHT22;11046;49.558;8.674;2024-03-22T09:29:41;13.90;96.40
21770;DHT22;11046;49.558;8.674;2024-03-22T09:32:44;14.00;96.40
21770;DHT22;11046;49.558;8.674;2024-03-22T09:35:44;14.20;96.20
21770;DHT22;11046;49.558;8.674;2024-03-22T09:38:45;14.30;96.00
21770;DHT22;11046;49.558;8.674;2024-03-22T09:41:45;14.50;95.90
21770;DHT22;11046;49.558;8.674;2024-03-22T09:44:48;14.70;95.80
21770;DHT22;11046;49.558;8.674;2024-03-22T09:47:50;14.90;95.60
21770;DHT22;11046;49.558;8.674;2024-03-22T09:50:53;15.20;95.50
21770;DHT22;11046;49.558;8.674;2024-03-22T09:53:54;15.50;95.20
21770;DHT22;11046;49.558;8.674;2024-03-22T09:56:56;15.80;94.80
21770;DHT22;11046;49.558;8.674;2024-03-22T09:59:57;16.00;94.20
21770;DHT22;11046;49.558;8.674;2024-03-22T10:03:00;16.20;94.10
21770;DHT22;11046;49.558;8.674;2024-03-22T10:06:00;16.30;94.00
21770;DHT22;11046;49.558;8.674;2024-03-22T10:09:02;16.50;93.90
21770;DHT22;11046;49.558;8.674;2024-03-22T10:12:05;16.60;93.30
21770;DHT22;11046;49.558;8.674;2024-03-22T10:15:06;16.90;93.10
21770;DHT22;11046;49.558;8.674;2024-03-22T10:18:10;17.10;92.60
21770;DHT22;11046;49.558;8.674;2024-03-22T10:21:10;17.10;92.40
21770;DHT22;11046;49.558;8.674;2024-03-22T10:24:11;17.20;92.30
21770;DHT22;11046;49.558;8.674;2024-03-22T10:27:12;17.10;91.90
21770;DHT22;11046;49.558;8.674;2024-03-22T10:30:16;17.00;91.70
21770;DHT22;11046;49.558;8.674;2024-03-22T10:33:21;17.10;91.70
21770;DHT22;11046;49.558;8.674;2024-03-22T10:36:23;17.10;91.80
21770;DHT22;11046;49.558;8.674;2024-03-22T10:39:26;17.20;91.90
21770;DHT22;11046;49.558;8.674;2024-03-22T10:42:27;17.30;91.70
21770;DHT22;11046;49.558;8.674;2024-03-22T10:45:29;17.30;91.70
21770;DHT22;11046;49.558;8.674;2024-03-22T10:48:31;17.40;91.50
21770;DHT22;11046;49.558;8.674;2024-03-22T10:51:34;17.30;91.60
21770;DHT22;11046;49.558;8.674;2024-03-22T10:54:40;17.30;91.60
21770;DHT22;11046;49.558;8.674;2024-03-22T10:57:44;17.40;91.60
21770;DHT22;11046;49.558;8.674;2024-03-22T11:00:46;17.50;91.60
21770;DHT22;11046;49.558;8.674;2024-03-22T11:07:38;17.60;91.00
21770;DHT22;11046;49.558;8.674;2024-03-22T11:10:39;17.60;91.20
21770;DHT22;11046;49.558;8.674;2024-03-22T11:13:40;17.60;91.10
21770;DHT22;11046;49.558;8.674;2024-03-22T11:16:47;17.50;90.90
21770;DHT22;11046;49.558;8.674;2024-03-22T11:19:48;17.50;90.90
21770;DHT22;11046;49.558;8.674;2024-03-22T11:22:48;17.50;90.90
21770;DHT22;11046;49.558;8.674;2024-03-22T11:25:49;17.50;90.80
21770;DHT22;11046;49.558;8.674;2024-03-22T11:28:50;17.40;90.70
21770;DHT22;11046;49.558;8.674;2024-03-22T11:31:50;17.40;90.60
21770;DHT22;11046;49.558;8.674;2024-03-22T11:34:51;17.40;90.40
21770;DHT22;11046;49.558;8.674;2024-03-22T11:37:52;17.40;90.10
21770;DHT22;11046;49.558;8.674;2024-03-22T11:40:53;17.50;90.20
21770;DHT22;11046;49.558;8.674;2024-03-22T11:43:55;17.70;90.20
21770;DHT22;11046;49.558;8.674;2024-03-22T11:46:58;17.90;90.30
21770;DHT22;11046;49.558;8.674;2024-03-22T11:49:59;17.90;89.00
21770;DHT22;11046;49.558;8.674;2024-03-22T11:53:00;17.90;88.80
21770;DHT22;11046;49.558;8.674;2024-03-22T11:56:00;18.00;88.90
21770;DHT22;11046;49.558;8.674;2024-03-22T11:59:03;18.20;88.80
21770;DHT22;11046;49.558;8.674;2024-03-22T12:02:05;18.30;88.70
21770;DHT22;11046;49.558;8.674;2024-03-22T12:05:07;18.40;88.20
21770;DHT22;11046;49.558;8.674;2024-03-22T12:08:08;18.50;87.90
21770;DHT22;11046;49.558;8.674;2024-03-22T12:11:10;18.60;87.30
21770;DHT22;11046;49.558;8.674;2024-03-22T12:14:10;18.80;87.10
21770;DHT22;11046;49.558;8.674;2024-03-22T12:17:11;19.00;86.50
21770;DHT22;11046;49.558;8.674;2024-03-22T12:20:12;19.10;85.50
21770;DHT22;11046;49.558;8.674;2024-03-22T12:23:15;19.10;85.70
21770;DHT22;11046;49.558;8.674;2024-03-22T12:26:15;19.10;85.00
21770;DHT22;11046;49.558;8.674;2024-03-22T12:29:16;19.00;84.60
21770;DHT22;11046;49.558;8.674;2024-03-22T12:32:17;18.90;84.30
21770;DHT22;11046;49.558;8.674;2024-03-22T12:35:18;18.70;84.40
21770;DHT22;11046;49.558;8.674;2024-03-22T12:38:18;18.70;84.20
21770;DHT22;11046;49.558;8.674;2024-03-22T12:41:19;18.60;83.80
21770;DHT22;11046;49.558;8.674;2024-03-22T12:44:20;18.50;84.10
21770;DHT22;11046;49.558;8.674;2024-03-22T12:47:21;18.40;84.20
21770;DHT22;11046;49.558;8.674;2024-03-22T12:50:21;18.40;84.40
21770;DHT22;11046;49.558;8.674;2024-03-22T12:53:22;18.40;84.60
21770;DHT22;11046;49.558;8.674;2024-03-22T12:56:23;18.50;84.90
21770;DHT22;11046;49.558;8.674;2024-03-22T12:59:24;18.60;84.40
21770;DHT22;11046;49.558;8.674;2024-03-22T13:02:25;18.70;84.10
21770;DHT22;11046;49.558;8.674;2024-03-22T13:05:27;18.80;84.00
21770;DHT22;11046;49.558;8.674;2024-03-22T13:08:27;18.90;84.40
21770;DHT22;11046;49.558;8.674;2024-03-22T13:11:28;19.10;84.40
21770;DHT22;11046;49.558;8.674;2024-03-22T13:14:28;19.30;84.20
21770;DHT22;11046;49.558;8.674;2024-03-22T13:17:29;19.50;83.70
21770;DHT22;11046;49.558;8.674;2024-03-22T13:20:29;19.50;82.20
21770;DHT22;11046;49.558;8.674;2024-03-22T13:23:30;19.40;82.00
21770;DHT22;11046;49.558;8.674;2024-03-22T13:26:31;19.50;81.50
21770;DHT22;11046;49.558;8.674;2024-03-22T13:29:31;19.50;81.00
21770;DHT22;11046;49.558;8.674;2024-03-22T13:32:32;19.70;80.70
21770;DHT22;11046;49.558;8.674;2024-03-22T13:35:32;19.70;80.30
21770;DHT22;11046;49.558;8.674;2024-03-22T13:38:33;19.70;81.20
21770;DHT22;11046;49.558;8.674;2024-03-22T13:41:34;19.60;80.30
21770;DHT22;11046;49.558;8.674;2024-03-22T13:44:34;19.60;80.30
21770;DHT22;11046;49.558;8.674;2024-03-22T13:47:35;19.90;81.00
21770;DHT22;11046;49.558;8.674;2024-03-22T13:50:37;20.00;79.60
21770;DHT22;11046;49.558;8.674;2024-03-22T13:53:38;20.00;78.80
21770;DHT22;11046;49.558;8.674;2024-03-22T13:56:38;19.90;78.20
21770;DHT22;11046;49.558;8.674;2024-03-22T13:59:39;20.00;78.10
21770;DHT22;11046;49.558;8.674;2024-03-22T14:02:43;19.90;77.80
21770;DHT22;11046;49.558;8.674;2024-03-22T14:05:45;19.90;77.60
21770;DHT22;11046;49.558;8.674;2024-03-22T14:08:46;19.80;77.30
21770;DHT22;11046;49.558;8.674;2024-03-22T14:11:46;19.60;77.00
21770;DHT22;11046;49.558;8.674;2024-03-22T14:14:49;19.60;76.90
21770;DHT22;11046;49.558;8.674;2024-03-22T14:17:49;19.40;76.80
21770;DHT22;11046;49.558;8.674;2024-03-22T14:20:50;19.30;76.90
21770;DHT22;11046;49.558;8.674;2024-03-22T14:23:51;19.40;77.10
21770;DHT22;11046;49.558;8.674;2024-03-22T14:26:51;19.40;76.90
21770;DHT22;11046;49.558;8.674;2024-03-22T14:29:52;19.40;77.40
21770;DHT22;11046;49.558;8.674;2024-03-22T14:32:53;19.30;76.60
21770;DHT22;11046;49.558;8.674;2024-03-22T14:35:53;19.20;76.70
21770;DHT22;11046;49.558;8.674;2024-03-22T14:38:54;19.00;76.80
21770;DHT22;11046;49.558;8.674;2024-03-22T14:41:54;19.10;77.10
21770;DHT22;11046;49.558;8.674;2024-03-22T14:44:55;19.10;76.90
21770;DHT22;11046;49.558;8.674;2024-03-22T14:47:56;19.10;77.40
21770;DHT22;11046;49.558;8.674;2024-03-22T14:50:57;19.20;77.70
21770;DHT22;11046;49.558;8.674;2024-03-22T14:53:58;19.20;77.60
21770;DHT22;11046;49.558;8.674;2024-03-22T14:56:59;19.20;77.70
21770;DHT22;11046;49.558;8.674;2024-03-22T15:00:00;19.20;77.60
21770;DHT22;11046;49.558;8.674;2024-03-22T15:03:00;19.20;78.00
21770;DHT22;11046;49.558;8.674;2024-03-22T15:06:01;19.30;78.20
21770;DHT22;11046;49.558;8.674;2024-03-22T15:09:02;19.30;78.00
21770;DHT22;11046;49.558;8.674;2024-03-22T15:12:09;19.20;77.60
21770;DHT22;11046;49.558;8.674;2024-03-22T15:15:10;19.30;77.40
21770;DHT22;11046;49.558;8.674;2024-03-22T15:18:10;19.20;77.40
21770;DHT22;11046;49.558;8.674;2024-03-22T15:21:11;19.20;77.40
21770;DHT22;11046;49.558;8.674;2024-03-22T15:24:12;19.10;77.70
21770;DHT22;11046;49.558;8.674;2024-03-22T15:27:12;19.00;77.80
21770;DHT22;11046;49.558;8.674;2024-03-22T15:30:14;19.00;78.00
21770;DHT22;11046;49.558;8.674;2024-03-22T15:33:14;18.90;78.00
21770;DHT22;11046;49.558;8.674;2024-03-22T15:36:16;18.80;78.20
21770;DHT22;11046;49.558;8.674;2024-03-22T15:39:17;18.70;78.70
21770;DHT22;11046;49.558;8.674;2024-03-22T15:42:18;18.60;78.60
21770;DHT22;11046;49.558;8.674;2024-03-22T15:45:19;18.60;78.70
21770;DHT22;11046;49.558;8.674;2024-03-22T15:48:20;18.50;78.60
21770;DHT22;11046;49.558;8.674;2024-03-22T15:51:22;18.40;78.80
21770;DHT22;11046;49.558;8.674;2024-03-22T15:54:23;18.50;79.00
21770;DHT22;11046;49.558;8.674;2024-03-22T15:57:24;18.50;79.00
21770;DHT22;11046;49.558;8.674;2024-03-22T16:00:25;18.30;78.90
21770;DHT22;11046;49.558;8.674;2024-03-22T16:03:28;18.30;79.00
21770;DHT22;11046;49.558;8.674;2024-03-22T16:06:29;18.30;79.30
21770;DHT22;11046;49.558;8.674;2024-03-22T16:09:31;18.30;79.60
21770;DHT22;11046;49.558;8.674;2024-03-22T16:12:31;18.30;79.40
21770;DHT22;11046;49.558;8.674;2024-03-22T16:15:32;18.30;79.60
21770;DHT22;11046;49.558;8.674;2024-03-22T16:18:33;18.30;79.70
21770;DHT22;11046;49.558;8.674;2024-03-22T16:21:34;18.30;79.40
21770;DHT22;11046;49.558;8.674;2024-03-22T16:24:34;18.20;79.60
21770;DHT22;11046;49.558;8.674;2024-03-22T16:27:35;18.30;79.70
21770;DHT22;11046;49.558;8.674;2024-03-22T16:30:36;18.20;79.50
21770;DHT22;11046;49.558;8.674;2024-03-22T16:33:36;18.30;79.60
21770;DHT22;11046;49.558;8.674;2024-03-22T16:36:37;18.20;79.50
21770;DHT22;11046;49.558;8.674;2024-03-22T16:39:37;18.30;79.60
21770;DHT22;11046;49.558;8.674;2024-03-22T16:42:48;18.30;79.70
21770;DHT22;11046;49.558;8.674;2024-03-22T16:45:49;18.20;79.70
21770;DHT22;11046;49.558;8.674;2024-03-22T16:48:49;18.10;79.70
21770;DHT22;11046;49.558;8.674;2024-03-22T16:51:50;18.00;79.80
21770;DHT22;11046;49.558;8.674;2024-03-22T16:54:51;17.90;80.00
21770;DHT22;11046;49.558;8.674;2024-03-22T16:57:52;17.80;80.20
21770;DHT22;11046;49.558;8.674;2024-03-22T17:00:53;17.70;80.20
21770;DHT22;11046;49.558;8.674;2024-03-22T17:03:54;17.50;80.30
21770;DHT22;11046;49.558;8.674;2024-03-22T17:06:54;17.50;80.60
21770;DHT22;11046;49.558;8.674;2024-03-22T17:09:56;17.40;80.60
21770;DHT22;11046;49.558;8.674;2024-03-22T17:12:56;17.30;80.80
21770;DHT22;11046;49.558;8.674;2024-03-22T17:15:57;17.30;81.10
21770;DHT22;11046;49.558;8.674;2024-03-22T17:18:59;17.10;81.20
21770;DHT22;11046;49.558;8.674;2024-03-22T17:21:59;17.10;81.40
21770;DHT22;11046;49.558;8.674;2024-03-22T17:25:01;17.10;81.50
21770;DHT22;11046;49.558;8.674;2024-03-22T17:28:02;17.10;81.30
21770;DHT22;11046;49.558;8.674;2024-03-22T17:31:03;17.10;81.20
21770;DHT22;11046;49.558;8.674;2024-03-22T17:34:03;17.00;81.50
21770;DHT22;11046;49.558;8.674;2024-03-22T17:37:05;16.80;81.70
21770;DHT22;11046;49.558;8.674;2024-03-22T17:40:06;16.80;81.80
21770;DHT22;11046;49.558;8.674;2024-03-22T17:43:07;16.70;81.90
21770;DHT22;11046;49.558;8.674;2024-03-22T17:46:08;16.50;82.20
21770;DHT22;11046;49.558;8.674;2024-03-22T17:49:09;16.40;82.40
21770;DHT22;11046;49.558;8.674;2024-03-22T17:52:10;16.20;82.80
21770;DHT22;11046;49.558;8.674;2024-03-22T17:55:10;16.20;83.10
21770;DHT22;11046;49.558;8.674;2024-03-22T17:58:12;16.00;83.40
21770;DHT22;11046;49.558;8.674;2024-03-22T18:01:13;15.90;83.70
21770;DHT22;11046;49.558;8.674;2024-03-22T18:04:14;15.90;83.90
21770;DHT22;11046;49.558;8.674;2024-03-22T18:07:15;15.80;84.30
21770;DHT22;11046;49.558;8.674;2024-03-22T18:10:21;15.70;84.60
21770;DHT22;11046;49.558;8.674;2024-03-22T18:13:23;15.70;85.00
21770;DHT22;11046;49.558;8.674;2024-03-22T18:16:25;15.50;85.40
21770;DHT22;11046;49.558;8.674;2024-03-22T18:19:25;15.50;85.90
21770;DHT22;11046;49.558;8.674;2024-03-22T18:22:26;15.50;86.30
21770;DHT22;11046;49.558;8.674;2024-03-22T18:25:26;15.40;86.50
21770;DHT22;11046;49.558;8.674;2024-03-22T18:28:27;15.40;86.80
21770;DHT22;11046;49.558;8.674;2024-03-22T18:31:27;15.40;86.90
21770;DHT22;11046;49.558;8.674;2024-03-22T18:34:28;15.30;87.20
21770;DHT22;11046;49.558;8.674;2024-03-22T18:37:29;15.20;87.50
21770;DHT22;11046;49.558;8.674;2024-03-22T18:40:30;15.20;87.70
21770;DHT22;11046;49.558;8.674;2024-03-22T18:43:30;15.10;87.80
21770;DHT22;11046;49.558;8.674;2024-03-22T18:46:33;14.90;88.00
21770;DHT22;11046;49.558;8.674;2024-03-22T18:49:33;14.80;88.50
21770;DHT22;11046;49.558;8.674;2024-03-22T18:52:34;14.60;89.00
21770;DHT22;11046;49.558;8.674;2024-03-22T18:55:35;14.50;89.20
21770;DHT22;11046;49.558;8.674;2024-03-22T18:58:37;14.40;89.40
21770;DHT22;11046;49.558;8.674;2024-03-22T19:01:37;14.40;89.70
21770;DHT22;11046;49.558;8.674;2024-03-22T19:04:38;14.40;89.70
21770;DHT22;11046;49.558;8.674;2024-03-22T19:07:39;14.40;89.70
21770;DHT22;11046;49.558;8.674;2024-03-22T19:10:39;14.30;89.80
21770;DHT22;11046;49.558;8.674;2024-03-22T19:13:41;14.30;89.90
21770;DHT22;11046;49.558;8.674;2024-03-22T19:16:41;14.20;90.00
21770;DHT22;11046;49.558;8.674;2024-03-22T19:19:42;14.10;90.10